Aviation Digital Data Service (ADDS)

Output produced by METARs form (1907 UTC 25 June 2017)
found at http://www.aviationweather.gov/adds/metars/
 
SYCJ 251900Z 27004KT 9000 -SHRA FEW018CB BKN019 28/25 Q1011 CB S,W NOSIG
TAF SYCJ 251048Z 2512/2612 08012KT 9999 FEW014CB BKN016 
     TEMPO 2515/2518 5000 SHRA 
     BECMG 2523/2601 06008KT 9999 FEW015CB SCT018
       
TAF SYKM 251048Z 2512/2523 07004KT 5000 SHRA-RA FEW013CB BKN015 
     TEMPO 2516/2522 5000 TSRA FEW012CB BKN014 BKN080
       
TAF SYLT 251048Z 2512/2523 VRB02KT 5000 TSRA FEW012CB BKN014 OVC080 NNNN